sensor_id;sensor_type;location;lat;lon;timestamp;pressure;altitude;pressure_sealevel;temperature
69857;BMP280;57147;53.582;10.112;2023-05-16T00:00:11;100950.03;;;9.54
69857;BMP280;57147;53.582;10.112;2023-05-16T00:05:12;100955.81;;;9.61
69857;BMP280;57147;53.582;10.112;2023-05-16T00:10:15;100952.94;;;9.52
69857;BMP280;57147;53.582;10.112;2023-05-16T00:15:17;100951.34;;;9.51
69857;BMP280;57147;53.582;10.112;2023-05-16T00:20:18;100912.03;;;9.30
69857;BMP280;57147;53.582;10.112;2023-05-16T00:25:21;100963.78;;;9.56
69857;BMP280;57147;53.582;10.112;2023-05-16T00:30:22;100954.75;;;9.57
69857;BMP280;57147;53.582;10.112;2023-05-16T00:35:23;100964.75;;;9.70
69857;BMP280;57147;53.582;10.112;2023-05-16T00:40:26;100971.84;;;9.75
69857;BMP280;57147;53.582;10.112;2023-05-16T00:45:27;100978.00;;;9.70
69857;BMP280;57147;53.582;10.112;2023-05-16T00:50:27;100964.88;;;9.55
69857;BMP280;57147;53.582;10.112;2023-05-16T00:55:31;100973.03;;;9.59
69857;BMP280;57147;53.582;10.112;2023-05-16T01:00:32;100953.50;;;9.49
69857;BMP280;57147;53.582;10.112;2023-05-16T01:05:33;100979.88;;;9.70
69857;BMP280;57147;53.582;10.112;2023-05-16T01:10:43;100972.91;;;9.79
69857;BMP280;57147;53.582;10.112;2023-05-16T01:15:57;100987.13;;;9.88
69857;BMP280;57147;53.582;10.112;2023-05-16T01:21:04;100997.44;;;9.95
69857;BMP280;57147;53.582;10.112;2023-05-16T01:26:16;100984.63;;;10.02
69857;BMP280;57147;53.582;10.112;2023-05-16T01:31:18;100979.47;;;9.86
69857;BMP280;57147;53.582;10.112;2023-05-16T01:36:24;100979.47;;;9.86
69857;BMP280;57147;53.582;10.112;2023-05-16T01:41:38;100981.28;;;9.91
69857;BMP280;57147;53.582;10.112;2023-05-16T01:46:45;100952.44;;;9.79
69857;BMP280;57147;53.582;10.112;2023-05-16T01:51:50;100982.59;;;9.93
69857;BMP280;57147;53.582;10.112;2023-05-16T01:56:55;100982.53;;;9.99
69857;BMP280;57147;53.582;10.112;2023-05-16T02:01:56;100965.75;;;9.74
69857;BMP280;57147;53.582;10.112;2023-05-16T02:06:57;100962.09;;;9.70
69857;BMP280;57147;53.582;10.112;2023-05-16T02:12:00;100969.06;;;9.56
69857;BMP280;57147;53.582;10.112;2023-05-16T02:17:01;100973.28;;;9.62
69857;BMP280;57147;53.582;10.112;2023-05-16T02:22:01;100986.56;;;9.57
69857;BMP280;57147;53.582;10.112;2023-05-16T02:27:05;100965.50;;;9.37
69857;BMP280;57147;53.582;10.112;2023-05-16T02:32:06;100992.44;;;9.54
69857;BMP280;57147;53.582;10.112;2023-05-16T02:37:06;100990.31;;;9.51
69857;BMP280;57147;53.582;10.112;2023-05-16T02:42:10;100996.94;;;9.53
69857;BMP280;57147;53.582;10.112;2023-05-16T02:47:10;101028.53;;;9.45
69857;BMP280;57147;53.582;10.112;2023-05-16T02:52:11;101038.00;;;9.56
69857;BMP280;57147;53.582;10.112;2023-05-16T02:57:14;101046.25;;;9.49
69857;BMP280;57147;53.582;10.112;2023-05-16T03:02:14;101044.97;;;9.47
69857;BMP280;57147;53.582;10.112;2023-05-16T03:07:15;101038.13;;;9.36
69857;BMP280;57147;53.582;10.112;2023-05-16T03:12:18;101044.22;;;9.36
69857;BMP280;57147;53.582;10.112;2023-05-16T03:17:19;101036.84;;;9.23
69857;BMP280;57147;53.582;10.112;2023-05-16T03:22:19;101047.66;;;9.37
69857;BMP280;57147;53.582;10.112;2023-05-16T03:27:23;101063.28;;;9.38
69857;BMP280;57147;53.582;10.112;2023-05-16T03:32:23;101070.25;;;9.19
69857;BMP280;57147;53.582;10.112;2023-05-16T03:37:24;101087.72;;;9.30
69857;BMP280;57147;53.582;10.112;2023-05-16T03:42:27;101083.81;;;9.07
69857;BMP280;57147;53.582;10.112;2023-05-16T03:47:28;101058.47;;;8.81
69857;BMP280;57147;53.582;10.112;2023-05-16T03:52:29;101091.22;;;9.15
69857;BMP280;57147;53.582;10.112;2023-05-16T03:57:32;101094.88;;;9.25
69857;BMP280;57147;53.582;10.112;2023-05-16T04:02:33;101062.16;;;8.90
69857;BMP280;57147;53.582;10.112;2023-05-16T04:07:34;101125.06;;;9.29
69857;BMP280;57147;53.582;10.112;2023-05-16T04:12:37;101112.69;;;9.09
69857;BMP280;57147;53.582;10.112;2023-05-16T04:17:37;101139.91;;;9.30
69857;BMP280;57147;53.582;10.112;2023-05-16T04:22:38;101121.41;;;9.14
69857;BMP280;57147;53.582;10.112;2023-05-16T04:27:41;101146.34;;;9.13
69857;BMP280;57147;53.582;10.112;2023-05-16T04:32:42;101139.41;;;9.23
69857;BMP280;57147;53.582;10.112;2023-05-16T04:37:43;101134.69;;;8.99
69857;BMP280;57147;53.582;10.112;2023-05-16T04:42:46;101187.63;;;9.20
69857;BMP280;57147;53.582;10.112;2023-05-16T04:47:46;101185.50;;;9.22
69857;BMP280;57147;53.582;10.112;2023-05-16T04:52:47;101206.69;;;9.22
69857;BMP280;57147;53.582;10.112;2023-05-16T04:57:50;101239.84;;;9.09
69857;BMP280;57147;53.582;10.112;2023-05-16T05:02:51;101217.88;;;8.88
69857;BMP280;57147;53.582;10.112;2023-05-16T05:07:51;101228.47;;;8.83
69857;BMP280;57147;53.582;10.112;2023-05-16T05:12:54;101233.75;;;8.73
69857;BMP280;57147;53.582;10.112;2023-05-16T05:17:55;101242.78;;;8.77
69857;BMP280;57147;53.582;10.112;2023-05-16T05:22:56;101243.81;;;8.71
69857;BMP280;57147;53.582;10.112;2023-05-16T05:27:59;101256.53;;;8.79
69857;BMP280;57147;53.582;10.112;2023-05-16T05:32:59;101222.63;;;8.61
69857;BMP280;57147;53.582;10.112;2023-05-16T05:38:00;101262.09;;;9.03
69857;BMP280;57147;53.582;10.112;2023-05-16T05:43:03;101286.72;;;9.29
69857;BMP280;57147;53.582;10.112;2023-05-16T05:48:04;101290.41;;;9.43
69857;BMP280;57147;53.582;10.112;2023-05-16T05:53:05;101285.91;;;9.38
69857;BMP280;57147;53.582;10.112;2023-05-16T05:58:08;101299.97;;;9.29
69857;BMP280;57147;53.582;10.112;2023-05-16T06:03:09;101300.47;;;9.51
69857;BMP280;57147;53.582;10.112;2023-05-16T06:08:10;101314.25;;;9.33
69857;BMP280;57147;53.582;10.112;2023-05-16T06:13:13;101314.25;;;9.43
69857;BMP280;57147;53.582;10.112;2023-05-16T06:18:14;101319.50;;;9.68
69857;BMP280;57147;53.582;10.112;2023-05-16T06:23:14;101361.41;;;9.71
69857;BMP280;57147;53.582;10.112;2023-05-16T06:28:17;101362.75;;;9.48
69857;BMP280;57147;53.582;10.112;2023-05-16T06:33:18;101355.06;;;9.57
69857;BMP280;57147;53.582;10.112;2023-05-16T06:38:19;101367.22;;;9.73
69857;BMP280;57147;53.582;10.112;2023-05-16T06:43:22;101369.47;;;10.20
69857;BMP280;57147;53.582;10.112;2023-05-16T06:48:23;101374.28;;;10.08
69857;BMP280;57147;53.582;10.112;2023-05-16T06:53:23;101324.25;;;9.86
69857;BMP280;57147;53.582;10.112;2023-05-16T06:58:27;101391.53;;;10.06
69857;BMP280;57147;53.582;10.112;2023-05-16T07:03:28;101360.84;;;9.95
69857;BMP280;57147;53.582;10.112;2023-05-16T07:08:29;101400.38;;;9.86
69857;BMP280;57147;53.582;10.112;2023-05-16T07:13:32;101406.09;;;10.18
69857;BMP280;57147;53.582;10.112;2023-05-16T07:18:33;101416.44;;;10.20
69857;BMP280;57147;53.582;10.112;2023-05-16T07:23:33;101417.50;;;10.19
69857;BMP280;57147;53.582;10.112;2023-05-16T07:28:36;101435.25;;;10.33
69857;BMP280;57147;53.582;10.112;2023-05-16T07:33:37;101432.78;;;10.52
69857;BMP280;57147;53.582;10.112;2023-05-16T07:38:38;101422.16;;;10.62
69857;BMP280;57147;53.582;10.112;2023-05-16T07:43:41;101425.13;;;10.46
69857;BMP280;57147;53.582;10.112;2023-05-16T07:48:42;101423.53;;;10.45
69857;BMP280;57147;53.582;10.112;2023-05-16T07:53:44;101466.69;;;10.70
69857;BMP280;57147;53.582;10.112;2023-05-16T07:58:48;101452.22;;;10.97
69857;BMP280;57147;53.582;10.112;2023-05-16T08:03:48;101460.97;;;10.97
69857;BMP280;57147;53.582;10.112;2023-05-16T08:08:49;101455.59;;;11.07
69857;BMP280;57147;53.582;10.112;2023-05-16T08:13:52;101455.09;;;11.00
69857;BMP280;57147;53.582;10.112;2023-05-16T08:18:53;101450.06;;;10.99
69857;BMP280;57147;53.582;10.112;2023-05-16T08:23:54;101469.75;;;11.71
69857;BMP280;57147;53.582;10.112;2023-05-16T08:28:57;101465.16;;;11.47
69857;BMP280;57147;53.582;10.112;2023-05-16T08:33:57;101476.19;;;11.65
69857;BMP280;57147;53.582;10.112;2023-05-16T08:38:58;101466.34;;;11.31
69857;BMP280;57147;53.582;10.112;2023-05-16T08:44:01;101472.19;;;11.28
69857;BMP280;57147;53.582;10.112;2023-05-16T08:49:04;101468.56;;;11.19
69857;BMP280;57147;53.582;10.112;2023-05-16T08:54:10;101459.66;;;11.68
69857;BMP280;57147;53.582;10.112;2023-05-16T08:59:13;101482.66;;;11.82
69857;BMP280;57147;53.582;10.112;2023-05-16T09:04:15;101472.91;;;11.44
69857;BMP280;57147;53.582;10.112;2023-05-16T09:09:15;101467.84;;;12.00
69857;BMP280;57147;53.582;10.112;2023-05-16T09:14:19;101448.25;;;12.39
69857;BMP280;57147;53.582;10.112;2023-05-16T09:19:22;101475.38;;;12.41
69857;BMP280;57147;53.582;10.112;2023-05-16T09:24:24;101473.34;;;12.32
69857;BMP280;57147;53.582;10.112;2023-05-16T09:29:28;101477.94;;;11.45
69857;BMP280;57147;53.582;10.112;2023-05-16T09:34:28;101398.88;;;11.22
69857;BMP280;57147;53.582;10.112;2023-05-16T09:39:29;101464.19;;;12.44
69857;BMP280;57147;53.582;10.112;2023-05-16T09:44:33;101454.19;;;11.54
69857;BMP280;57147;53.582;10.112;2023-05-16T09:49:35;101485.97;;;11.98
69857;BMP280;57147;53.582;10.112;2023-05-16T09:54:36;101455.63;;;12.23
69857;BMP280;57147;53.582;10.112;2023-05-16T09:59:39;101463.56;;;12.28
69857;BMP280;57147;53.582;10.112;2023-05-16T10:04:41;101479.19;;;12.34
69857;BMP280;57147;53.582;10.112;2023-05-16T10:09:42;101473.28;;;12.14
69857;BMP280;57147;53.582;10.112;2023-05-16T10:14:46;101493.56;;;12.33
69857;BMP280;57147;53.582;10.112;2023-05-16T10:19:47;101450.25;;;11.51
69857;BMP280;57147;53.582;10.112;2023-05-16T10:25:03;101477.22;;;11.69
69857;BMP280;57147;53.582;10.112;2023-05-16T10:30:10;101467.81;;;12.29
69857;BMP280;57147;53.582;10.112;2023-05-16T10:35:12;101433.56;;;12.41
69857;BMP280;57147;53.582;10.112;2023-05-16T10:40:13;101476.34;;;12.50
69857;BMP280;57147;53.582;10.112;2023-05-16T10:45:18;101493.59;;;12.76
69857;BMP280;57147;53.582;10.112;2023-05-16T10:50:32;101483.28;;;12.51
69857;BMP280;57147;53.582;10.112;2023-05-16T10:55:33;101468.97;;;11.94
69857;BMP280;57147;53.582;10.112;2023-05-16T11:00:38;101502.66;;;12.75
69857;BMP280;57147;53.582;10.112;2023-05-16T11:05:39;101497.44;;;12.46
69857;BMP280;57147;53.582;10.112;2023-05-16T11:10:41;101501.53;;;12.39
69857;BMP280;57147;53.582;10.112;2023-05-16T11:15:44;101514.59;;;12.77
69857;BMP280;57147;53.582;10.112;2023-05-16T11:20:45;101511.28;;;12.67
69857;BMP280;57147;53.582;10.112;2023-05-16T11:25:47;101530.25;;;13.22
69857;BMP280;57147;53.582;10.112;2023-05-16T11:30:54;101528.50;;;12.32
69857;BMP280;57147;53.582;10.112;2023-05-16T11:36:02;101543.47;;;11.94
69857;BMP280;57147;53.582;10.112;2023-05-16T11:41:04;101541.72;;;12.13
69857;BMP280;57147;53.582;10.112;2023-05-16T11:46:10;101524.06;;;12.46
69857;BMP280;57147;53.582;10.112;2023-05-16T11:51:11;101530.13;;;12.52
69857;BMP280;57147;53.582;10.112;2023-05-16T11:56:11;101522.31;;;12.37
69857;BMP280;57147;53.582;10.112;2023-05-16T12:01:14;101493.13;;;12.26
69857;BMP280;57147;53.582;10.112;2023-05-16T12:06:15;101522.09;;;12.75
69857;BMP280;57147;53.582;10.112;2023-05-16T12:11:16;101563.56;;;13.05
69857;BMP280;57147;53.582;10.112;2023-05-16T12:16:19;101533.38;;;12.25
69857;BMP280;57147;53.582;10.112;2023-05-16T12:21:20;101558.63;;;12.27
69857;BMP280;57147;53.582;10.112;2023-05-16T12:26:24;101551.34;;;12.81
69857;BMP280;57147;53.582;10.112;2023-05-16T12:31:28;101538.97;;;13.08
69857;BMP280;57147;53.582;10.112;2023-05-16T12:36:31;101554.56;;;13.71
69857;BMP280;57147;53.582;10.112;2023-05-16T12:41:32;101572.03;;;13.07
69857;BMP280;57147;53.582;10.112;2023-05-16T12:46:40;101576.06;;;12.86
69857;BMP280;57147;53.582;10.112;2023-05-16T12:51:47;101535.50;;;12.47
69857;BMP280;57147;53.582;10.112;2023-05-16T12:56:48;101585.72;;;12.34
69857;BMP280;57147;53.582;10.112;2023-05-16T13:01:51;101600.16;;;12.57
69857;BMP280;57147;53.582;10.112;2023-05-16T13:06:52;101583.09;;;12.77
69857;BMP280;57147;53.582;10.112;2023-05-16T13:11:52;101596.38;;;12.58
69857;BMP280;57147;53.582;10.112;2023-05-16T13:16:56;101542.72;;;10.61
69857;BMP280;57147;53.582;10.112;2023-05-16T13:21:56;101404.25;;;8.72
69857;BMP280;57147;53.582;10.112;2023-05-16T13:26:59;101383.44;;;9.36
69857;BMP280;57147;53.582;10.112;2023-05-16T13:32:02;101474.78;;;10.45
69857;BMP280;57147;53.582;10.112;2023-05-16T13:37:04;101573.09;;;11.04
69857;BMP280;57147;53.582;10.112;2023-05-16T13:42:05;101595.66;;;11.12
69857;BMP280;57147;53.582;10.112;2023-05-16T13:47:08;101607.56;;;11.69
69857;BMP280;57147;53.582;10.112;2023-05-16T13:52:09;101607.63;;;12.26
69857;BMP280;57147;53.582;10.112;2023-05-16T13:57:09;101608.63;;;11.73
69857;BMP280;57147;53.582;10.112;2023-05-16T14:02:13;101627.09;;;11.93
69857;BMP280;57147;53.582;10.112;2023-05-16T14:07:13;101636.84;;;12.37
69857;BMP280;57147;53.582;10.112;2023-05-16T14:12:14;101624.66;;;11.58
69857;BMP280;57147;53.582;10.112;2023-05-16T14:17:17;101614.03;;;12.97
69857;BMP280;57147;53.582;10.112;2023-05-16T14:22:18;101617.00;;;12.48
69857;BMP280;57147;53.582;10.112;2023-05-16T14:27:19;101627.63;;;13.56
69857;BMP280;57147;53.582;10.112;2023-05-16T14:32:22;101616.44;;;12.98
69857;BMP280;57147;53.582;10.112;2023-05-16T14:37:23;101643.44;;;12.68
69857;BMP280;57147;53.582;10.112;2023-05-16T14:42:23;101619.72;;;12.90
69857;BMP280;57147;53.582;10.112;2023-05-16T14:47:27;101597.50;;;12.76
69857;BMP280;57147;53.582;10.112;2023-05-16T14:52:27;101628.78;;;12.89
69857;BMP280;57147;53.582;10.112;2023-05-16T14:57:28;101623.81;;;12.59
69857;BMP280;57147;53.582;10.112;2023-05-16T15:02:31;101615.63;;;12.98
69857;BMP280;57147;53.582;10.112;2023-05-16T15:07:32;101635.81;;;13.04
69857;BMP280;57147;53.582;10.112;2023-05-16T15:12:32;101592.56;;;11.44
69857;BMP280;57147;53.582;10.112;2023-05-16T15:17:36;101636.28;;;11.72
69857;BMP280;57147;53.582;10.112;2023-05-16T15:22:38;101648.06;;;11.56
69857;BMP280;57147;53.582;10.112;2023-05-16T15:27:39;101621.66;;;12.03
69857;BMP280;57147;53.582;10.112;2023-05-16T15:32:43;101630.84;;;12.50
69857;BMP280;57147;53.582;10.112;2023-05-16T15:37:43;101625.41;;;12.02
69857;BMP280;57147;53.582;10.112;2023-05-16T15:42:44;101625.28;;;11.44
69857;BMP280;57147;53.582;10.112;2023-05-16T15:47:47;101621.13;;;11.23
69857;BMP280;57147;53.582;10.112;2023-05-16T15:52:48;101626.47;;;11.08
69857;BMP280;57147;53.582;10.112;2023-05-16T15:57:48;101647.31;;;10.70
69857;BMP280;57147;53.582;10.112;2023-05-16T16:02:52;101611.75;;;10.41
69857;BMP280;57147;53.582;10.112;2023-05-16T16:07:52;101666.97;;;10.80
69857;BMP280;57147;53.582;10.112;2023-05-16T16:12:57;101587.84;;;10.77
69857;BMP280;57147;53.582;10.112;2023-05-16T16:18:01;101626.56;;;10.88
69857;BMP280;57147;53.582;10.112;2023-05-16T16:23:02;101634.56;;;10.83
69857;BMP280;57147;53.582;10.112;2023-05-16T16:28:06;101637.59;;;11.25
69857;BMP280;57147;53.582;10.112;2023-05-16T16:33:09;101634.69;;;12.39
69857;BMP280;57147;53.582;10.112;2023-05-16T16:38:10;101605.50;;;14.48
69857;BMP280;57147;53.582;10.112;2023-05-16T16:43:11;101640.53;;;13.31
69857;BMP280;57147;53.582;10.112;2023-05-16T16:48:14;101651.00;;;11.98
69857;BMP280;57147;53.582;10.112;2023-05-16T16:53:15;101640.84;;;11.02
69857;BMP280;57147;53.582;10.112;2023-05-16T16:58:17;101622.38;;;10.41
69857;BMP280;57147;53.582;10.112;2023-05-16T17:03:22;101593.47;;;10.19
69857;BMP280;57147;53.582;10.112;2023-05-16T17:08:23;101538.31;;;9.91
69857;BMP280;57147;53.582;10.112;2023-05-16T17:13:23;101532.47;;;9.84
69857;BMP280;57147;53.582;10.112;2023-05-16T17:18:29;101465.31;;;9.18
69857;BMP280;57147;53.582;10.112;2023-05-16T17:23:30;101400.28;;;8.12
69857;BMP280;57147;53.582;10.112;2023-05-16T17:28:31;101385.94;;;8.03
69857;BMP280;57147;53.582;10.112;2023-05-16T17:33:34;101441.53;;;7.44
69857;BMP280;57147;53.582;10.112;2023-05-16T17:38:35;101597.72;;;7.26
69857;BMP280;57147;53.582;10.112;2023-05-16T17:43:38;101685.78;;;7.53
69857;BMP280;57147;53.582;10.112;2023-05-16T17:48:45;101657.03;;;7.57
69857;BMP280;57147;53.582;10.112;2023-05-16T17:53:47;101613.59;;;7.26
69857;BMP280;57147;53.582;10.112;2023-05-16T17:58:48;101675.28;;;7.58
69857;BMP280;57147;53.582;10.112;2023-05-16T18:03:51;101802.59;;;7.72
69857;BMP280;57147;53.582;10.112;2023-05-16T18:08:55;101742.81;;;7.49
69857;BMP280;57147;53.582;10.112;2023-05-16T18:13:56;101908.13;;;8.07
69857;BMP280;57147;53.582;10.112;2023-05-16T18:19:00;101961.25;;;8.22
69857;BMP280;57147;53.582;10.112;2023-05-16T18:24:02;101983.06;;;8.13
69857;BMP280;57147;53.582;10.112;2023-05-16T18:29:04;101995.41;;;7.90
69857;BMP280;57147;53.582;10.112;2023-05-16T18:34:07;102007.41;;;7.81
69857;BMP280;57147;53.582;10.112;2023-05-16T18:39:08;102007.16;;;7.83
69857;BMP280;57147;53.582;10.112;2023-05-16T18:44:08;102013.34;;;7.88
69857;BMP280;57147;53.582;10.112;2023-05-16T18:49:12;102021.84;;;7.90
69857;BMP280;57147;53.582;10.112;2023-05-16T18:54:13;102022.41;;;7.92
69857;BMP280;57147;53.582;10.112;2023-05-16T18:59:13;102038.03;;;7.94
69857;BMP280;57147;53.582;10.112;2023-05-16T19:04:17;102037.56;;;7.97
69857;BMP280;57147;53.582;10.112;2023-05-16T19:09:17;101995.25;;;7.97
69857;BMP280;57147;53.582;10.112;2023-05-16T19:14:18;101986.41;;;7.91
69857;BMP280;57147;53.582;10.112;2023-05-16T19:19:21;101884.31;;;7.74
69857;BMP280;57147;53.582;10.112;2023-05-16T19:24:22;101885.03;;;7.86
69857;BMP280;57147;53.582;10.112;2023-05-16T19:29:22;101967.50;;;8.16
69857;BMP280;57147;53.582;10.112;2023-05-16T19:34:25;101970.56;;;8.25
69857;BMP280;57147;53.582;10.112;2023-05-16T19:39:26;101966.19;;;8.35
69857;BMP280;57147;53.582;10.112;2023-05-16T19:44:26;101977.94;;;8.45
69857;BMP280;57147;53.582;10.112;2023-05-16T19:49:30;101929.13;;;8.35
69857;BMP280;57147;53.582;10.112;2023-05-16T19:54:31;101784.03;;;8.27
69857;BMP280;57147;53.582;10.112;2023-05-16T19:59:31;101812.66;;;7.92
69857;BMP280;57147;53.582;10.112;2023-05-16T20:04:34;101844.25;;;7.82
69857;BMP280;57147;53.582;10.112;2023-05-16T20:09:35;101998.41;;;7.82
69857;BMP280;57147;53.582;10.112;2023-05-16T20:14:36;102008.97;;;7.66
69857;BMP280;57147;53.582;10.112;2023-05-16T20:19:39;102005.69;;;7.58
69857;BMP280;57147;53.582;10.112;2023-05-16T20:24:39;102034.09;;;7.51
69857;BMP280;57147;53.582;10.112;2023-05-16T20:29:41;102024.28;;;7.35
69857;BMP280;57147;53.582;10.112;2023-05-16T20:34:44;102047.84;;;7.53
69857;BMP280;57147;53.582;10.112;2023-05-16T20:39:45;102012.34;;;7.61
69857;BMP280;57147;53.582;10.112;2023-05-16T20:44:46;102027.13;;;7.62
69857;BMP280;57147;53.582;10.112;2023-05-16T20:49:49;102038.44;;;7.57
69857;BMP280;57147;53.582;10.112;2023-05-16T20:54:50;102042.91;;;7.57
69857;BMP280;57147;53.582;10.112;2023-05-16T20:59:50;102017.06;;;7.31
69857;BMP280;57147;53.582;10.112;2023-05-16T21:04:54;102061.84;;;7.66
69857;BMP280;57147;53.582;10.112;2023-05-16T21:09:54;102068.09;;;7.59
69857;BMP280;57147;53.582;10.112;2023-05-16T21:14:55;102062.50;;;7.73
69857;BMP280;57147;53.582;10.112;2023-05-16T21:19:58;102078.16;;;7.62
69857;BMP280;57147;53.582;10.112;2023-05-16T21:24:59;102083.00;;;7.66
69857;BMP280;57147;53.582;10.112;2023-05-16T21:29:59;102084.13;;;7.70
69857;BMP280;57147;53.582;10.112;2023-05-16T21:35:03;102084.59;;;7.67
69857;BMP280;57147;53.582;10.112;2023-05-16T21:40:05;102068.75;;;7.67
69857;BMP280;57147;53.582;10.112;2023-05-16T21:45:07;102065.91;;;7.56
69857;BMP280;57147;53.582;10.112;2023-05-16T21:50:11;102089.19;;;7.71
69857;BMP280;57147;53.582;10.112;2023-05-16T21:55:12;102099.06;;;7.76
69857;BMP280;57147;53.582;10.112;2023-05-16T22:00:14;102099.63;;;7.78
69857;BMP280;57147;53.582;10.112;2023-05-16T22:05:17;102102.28;;;7.78
69857;BMP280;57147;53.582;10.112;2023-05-16T22:10:18;102112.50;;;7.74
69857;BMP280;57147;53.582;10.112;2023-05-16T22:15:18;102080.66;;;7.81
69857;BMP280;57147;53.582;10.112;2023-05-16T22:20:22;102087.44;;;7.77
69857;BMP280;57147;53.582;10.112;2023-05-16T22:25:23;102045.72;;;7.79
69857;BMP280;57147;53.582;10.112;2023-05-16T22:30:24;102033.19;;;7.74
69857;BMP280;57147;53.582;10.112;2023-05-16T22:35:27;102026.06;;;7.75
69857;BMP280;57147;53.582;10.112;2023-05-16T22:40:27;102010.75;;;7.77
69857;BMP280;57147;53.582;10.112;2023-05-16T22:45:28;102016.13;;;7.82
69857;BMP280;57147;53.582;10.112;2023-05-16T22:50:31;101919.25;;;7.76
69857;BMP280;57147;53.582;10.112;2023-05-16T22:55:32;101884.16;;;7.63
69857;BMP280;57147;53.582;10.112;2023-05-16T23:00:32;101936.72;;;7.77
69857;BMP280;57147;53.582;10.112;2023-05-16T23:05:35;101946.66;;;7.70
69857;BMP280;57147;53.582;10.112;2023-05-16T23:10:36;101960.75;;;7.58
69857;BMP280;57147;53.582;10.112;2023-05-16T23:15:37;101998.06;;;7.45
69857;BMP280;57147;53.582;10.112;2023-05-16T23:20:40;102047.69;;;7.43
69857;BMP280;57147;53.582;10.112;2023-05-16T23:25:40;102051.06;;;7.39
69857;BMP280;57147;53.582;10.112;2023-05-16T23:30:41;102065.06;;;7.39
69857;BMP280;57147;53.582;10.112;2023-05-16T23:35:44;102085.19;;;7.40
69857;BMP280;57147;53.582;10.112;2023-05-16T23:40:45;102095.06;;;7.33
69857;BMP280;57147;53.582;10.112;2023-05-16T23:45:45;102100.94;;;7.23
69857;BMP280;57147;53.582;10.112;2023-05-16T23:50:49;102116.47;;;7.20
69857;BMP280;57147;53.582;10.112;2023-05-16T23:55:50;102125.63;;;7.06
